Terminal Aerodrome Forecast
Issued by NWS Wilmington, OH

Current Version | Previous Version | Text Only | Print | Product List | Glossary Off
Versions: 1 2 3 4 5 6 7 8 9 10 11 12 13 14

000
FTUS41 KILN 011700
TAFILN
TAF
KILN 011730Z 0118/0218 34010KT P6SM SCT040
     FM020000 VRB03KT P6SM SKC
      TEMPO 0208/0211 4SM BR
     FM021400 25005KT P6SM SCT200=

USA.gov is the U.S. government's official web portal to all federal, state and local government web resources and services.